| time (UTC) | temp F | wind direction | speed knots | gust knots | rain 1hr in | rain 24hr in | rain mn in | humidity % | barometer mb |
| 20260509024347 | 51 | 111 | 0.9 | 2.6 | 0.00 | 0.01 | 0.01 | 85 | 1007.4 |
| 20260509023844 | 52 | 96 | 1.7 | 2.6 | 0.00 | 0.01 | 0.01 | 84 | 1007.5 |
| 20260509023342 | 52 | 95 | 1.7 | 2.6 | 0.00 | 0.01 | 0.01 | 84 | 1007.4 |
| 20260509022838 | 52 | 93 | 1.7 | 3.5 | 0.00 | 0.01 | 0.01 | 83 | 1007.4 |
| 20260509022336 | 52 | 106 | 0.9 | 2.6 | 0.00 | 0.01 | 0.01 | 83 | 1007.4 |
| 20260509021832 | 53 | 91 | 1.7 | 2.6 | 0.00 | 0.01 | 0.01 | 82 | 1007.5 |
| 20260509021329 | 53 | 132 | 1.7 | 3.5 | 0.00 | 0.01 | 0.01 | 82 | 1007.5 |
| 20260509020827 | 53 | 63 | 0.9 | 2.6 | 0.00 | 0.01 | 0.01 | 81 | 1007.5 |
| 20260509020325 | 53 | 142 | 2.6 | 3.5 | 0.00 | 0.01 | 0.01 | 80 | 1007.3 |
| 20260509015822 | 53 | 116 | 2.6 | 2.6 | 0.00 | 0.01 | 0.01 | 79 | 1007.3 |
| 20260509015320 | 53 | 144 | 3.5 | 3.5 | 0.00 | 0.01 | 0.01 | 79 | 1007.3 |
| 20260509014817 | 53 | 70 | 0.9 | 2.6 | 0.00 | 0.01 | 0.01 | 79 | 1007.3 |
| 20260509014314 | 53 | 78 | 0.9 | 1.7 | 0.00 | 0.01 | 0.01 | 79 | 1007.5 |
| 20260509013810 | 53 | 91 | 1.7 | 2.6 | 0.00 | 0.01 | 0.01 | 79 | 1007.5 |
| 20260509013306 | 53 | 97 | 1.7 | 1.7 | 0.00 | 0.01 | 0.01 | 78 | 1007.1 |
| 20260509012802 | 53 | 97 | 1.7 | 2.6 | 0.00 | 0.01 | 0.01 | 78 | 1007.2 |
| 20260509012300 | 53 | 120 | 1.7 | 1.7 | 0.00 | 0.01 | 0.01 | 77 | 1007.3 |
| 20260509011757 | 53 | 85 | 0.9 | 1.7 | 0.00 | 0.01 | 0.01 | 76 | 1007.1 |
| 20260509011254 | 54 | 75 | 0.9 | 2.6 | 0.00 | 0.01 | 0.01 | 75 | 1007.0 |
| 20260509010752 | 54 | 66 | 0.0 | 1.7 | 0.00 | 0.01 | 0.01 | 75 | 1007.0 |
| 20260509010248 | 54 | 73 | 0.9 | 1.7 | 0.00 | 0.01 | 0.01 | 74 | 1007.0 |
| 20260509005746 | 54 | 71 | 0.9 | 1.7 | 0.00 | 0.01 | 0.01 | 73 | 1006.9 |
| 20260509005244 | 55 | 77 | 0.9 | 1.7 | 0.00 | 0.01 | 0.01 | 72 | 1006.9 |
| 20260509004743 | 55 | 76 | 0.9 | 1.7 | 0.00 | 0.01 | 0.01 | 71 | 1007.0 |
| 20260509004241 | 55 | 75 | 0.9 | 2.6 | 0.00 | 0.01 | 0.01 | 70 | 1006.8 |
| 20260509003739 | 56 | 121 | 2.6 | 2.6 | 0.00 | 0.01 | 0.01 | 69 | 1006.9 |
| 20260509003236 | 56 | 172 | 3.5 | 3.5 | 0.00 | 0.01 | 0.01 | 68 | 1006.8 |
| 20260509002733 | 56 | 108 | 1.7 | 2.6 | 0.00 | 0.01 | 0.01 | 67 | 1006.7 |
| 20260509002231 | 57 | 114 | 1.7 | 3.5 | 0.00 | 0.01 | 0.01 | 65 | 1006.8 |
| 20260509001728 | 57 | 164 | 3.5 | 5.2 | 0.00 | 0.01 | 0.01 | 62 | 1006.7 |
| 20260509001224 | 58 | 160 | 2.6 | 5.2 | 0.00 | 0.01 | 0.01 | 60 | 1006.8 |
| 20260509000722 | 58 | 157 | 2.6 | 2.6 | 0.00 | 0.01 | 0.01 | 58 | 1006.7 |
| 20260509000219 | 59 | 151 | 2.6 | 2.6 | 0.00 | 0.01 | 0.01 | 56 | 1006.7 |
| 20260508235716 | 59 | 81 | 1.7 | 2.6 | 0.00 | 0.01 | 0.01 | 55 | 1006.7 |
| 20260508235212 | 60 | 50 | 0.9 | 2.6 | 0.00 | 0.01 | 0.01 | 53 | 1006.6 |
| 20260508234710 | 60 | 171 | 2.6 | 2.6 | 0.00 | 0.01 | 0.01 | 51 | 1006.6 |
| 20260508234206 | 60 | 72 | 1.7 | 2.6 | 0.00 | 0.01 | 0.01 | 51 | 1006.6 |
| 20260508233706 | 60 | 129 | 2.6 | 2.6 | 0.00 | 0.01 | 0.01 | 50 | 1006.7 |
| 20260508233203 | 60 | 58 | 0.0 | 0.9 | 0.00 | 0.01 | 0.01 | 49 | 1006.7 |
| 20260508232700 | 60 | 152 | 1.7 | 2.6 | 0.00 | 0.01 | 0.01 | 47 | 1006.8 |
| 20260508232156 | 60 | 70 | 0.9 | 1.7 | 0.00 | 0.01 | 0.01 | 49 | 1006.8 |
| 20260508231655 | 60 | 57 | 0.9 | 3.5 | 0.00 | 0.01 | 0.01 | 48 | 1006.8 |
| 20260508231151 | 61 | 83 | 0.9 | 2.6 | 0.00 | 0.01 | 0.01 | 45 | 1006.9 |
| 20260508230648 | 61 | 142 | 1.7 | 1.7 | 0.00 | 0.01 | 0.01 | 44 | 1006.8 |
| 20260508230144 | 61 | 132 | 1.7 | 1.7 | 0.00 | 0.01 | 0.01 | 43 | 1006.9 |
| 20260508225642 | 61 | 55 | 1.7 | 2.6 | 0.00 | 0.01 | 0.01 | 44 | 1006.8 |
| 20260508225138 | 61 | 162 | 2.6 | 6.1 | 0.00 | 0.01 | 0.01 | 44 | 1006.8 |
| 20260508224636 | 61 | 217 | 0.9 | 2.6 | 0.00 | 0.01 | 0.01 | 44 | 1006.8 |
| 20260508224134 | 61 | 172 | 1.7 | 2.6 | 0.00 | 0.01 | 0.01 | 45 | 1006.7 |
| 20260508223631 | 61 | 123 | 1.7 | 3.5 | 0.00 | 0.01 | 0.01 | 44 | 1006.8 |
| 20260508223128 | 61 | 139 | 2.6 | 7.0 | 0.00 | 0.01 | 0.01 | 43 | 1006.7 |
| 20260508222626 | 61 | 173 | 2.6 | 6.1 | 0.00 | 0.01 | 0.01 | 43 | 1006.7 |
| 20260508222122 | 61 | 150 | 1.7 | 5.2 | 0.00 | 0.01 | 0.01 | 44 | 1006.8 |
| 20260508221618 | 62 | 157 | 2.6 | 5.2 | 0.00 | 0.01 | 0.01 | 42 | 1007.0 |
| 20260508221114 | 61 | 94 | 0.9 | 2.6 | 0.00 | 0.01 | 0.01 | 42 | 1007.1 |
| 20260508220611 | 61 | 102 | 1.7 | 5.2 | 0.00 | 0.01 | 0.01 | 41 | 1006.9 |
| 20260508220108 | 61 | 169 | 3.5 | 5.2 | 0.00 | 0.01 | 0.01 | 42 | 1007.0 |
| 20260508215604 | 62 | 147 | 3.5 | 3.5 | 0.00 | 0.01 | 0.01 | 41 | 1006.9 |
| 20260508215101 | 61 | 158 | 2.6 | 3.5 | 0.00 | 0.01 | 0.01 | 42 | 1007.0 |
| 20260508214559 | 61 | 219 | 2.6 | 5.2 | 0.00 | 0.01 | 0.01 | 41 | 1007.2 |
| 20260508214055 | 61 | 102 | 3.5 | 5.2 | 0.00 | 0.01 | 0.01 | 42 | 1007.0 |
| 20260508213552 | 62 | 171 | 2.6 | 7.8 | 0.00 | 0.01 | 0.01 | 41 | 1006.9 |
| 20260508213048 | 62 | 55 | 1.7 | 5.2 | 0.00 | 0.01 | 0.01 | 40 | 1007.1 |
| 20260508212544 | 63 | 202 | 3.5 | 5.2 | 0.00 | 0.01 | 0.01 | 37 | 1006.9 |
| 20260508212041 | 64 | 217 | 3.5 | 7.0 | 0.00 | 0.01 | 0.01 | 39 | 1006.9 |
| 20260508211537 | 63 | 147 | 3.5 | 5.2 | 0.00 | 0.01 | 0.01 | 37 | 1007.0 |
| 20260508211033 | 63 | 165 | 1.7 | 2.6 | 0.00 | 0.01 | 0.01 | 41 | 1007.0 |
| 20260508210530 | 62 | 182 | 2.6 | 3.5 | 0.00 | 0.01 | 0.01 | 37 | 1006.9 |
| 20260508210028 | 63 | 237 | 5.2 | 7.8 | 0.00 | 0.01 | 0.01 | 37 | 1007.2 |
| 20260508205524 | 63 | 52 | 0.0 | 1.7 | 0.00 | 0.01 | 0.01 | 40 | 1007.1 |
| 20260508205020 | 63 | 163 | 2.6 | 2.6 | 0.00 | 0.01 | 0.01 | 38 | 1007.1 |
| 20260508204518 | 63 | 226 | 2.6 | 3.5 | 0.00 | 0.01 | 0.01 | 35 | 1007.2 |
| 20260508204013 | 62 | 70 | 0.0 | 3.5 | 0.00 | 0.01 | 0.01 | 38 | 1007.1 |
| 20260508203509 | 63 | 195 | 2.6 | 7.0 | 0.00 | 0.01 | 0.01 | 37 | 1007.4 |
| 20260508203005 | 63 | 73 | 0.9 | 2.6 | 0.00 | 0.01 | 0.01 | 35 | 1007.4 |
| 20260508202502 | 62 | 263 | 5.2 | 6.1 | 0.00 | 0.01 | 0.01 | 36 | 1007.5 |
| 20260508201959 | 63 | 138 | 2.6 | 2.6 | 0.00 | 0.01 | 0.01 | 36 | 1007.6 |
| 20260508201456 | 63 | 185 | 3.5 | 6.1 | 0.00 | 0.01 | 0.01 | 38 | 1007.6 |
| 20260508200952 | 64 | 287 | 3.5 | 6.1 | 0.00 | 0.01 | 0.01 | 31 | 1007.7 |
| 20260508200450 | 63 | 255 | 7.0 | 8.7 | 0.00 | 0.01 | 0.01 | 30 | 1007.8 |
| 20260508195944 | 62 | 241 | 2.6 | 5.2 | 0.00 | 0.01 | 0.01 | 34 | 1007.9 |
| 20260508195442 | 62 | 260 | 6.1 | 8.7 | 0.00 | 0.01 | 0.01 | 31 | 1007.9 |
| 20260508194938 | 63 | 269 | 6.1 | 9.6 | 0.00 | 0.01 | 0.01 | 33 | 1008.1 |
| 20260508194435 | 64 | 273 | 6.1 | 9.6 | 0.00 | 0.01 | 0.01 | 30 | 1008.0 |
| 20260508193932 | 63 | 174 | 1.7 | 2.6 | 0.00 | 0.01 | 0.01 | 30 | 1008.1 |
| 20260508193430 | 63 | 54 | 1.7 | 2.6 | 0.00 | 0.01 | 0.01 | 32 | 1008.2 |
| 20260508192925 | 62 | 62 | 0.0 | 3.5 | 0.00 | 0.01 | 0.01 | 30 | 1008.3 |
| 20260508192423 | 62 | 235 | 1.7 | 2.6 | 0.00 | 0.01 | 0.01 | 32 | 1008.3 |
| 20260508191919 | 61 | 237 | 4.3 | 8.7 | 0.00 | 0.01 | 0.01 | 36 | 1008.2 |
| 20260508191417 | 61 | 273 | 2.6 | 3.5 | 0.00 | 0.01 | 0.01 | 33 | 1008.4 |
| 20260508190913 | 61 | 262 | 5.2 | 11.3 | 0.00 | 0.01 | 0.01 | 34 | 1008.5 |
| 20260508190410 | 61 | 262 | 6.1 | 9.6 | 0.00 | 0.01 | 0.01 | 29 | 1008.4 |
| 20260508185906 | 61 | 264 | 10.4 | 13.0 | 0.00 | 0.01 | 0.01 | 30 | 1008.7 |
| 20260508185404 | 62 | 271 | 6.1 | 8.7 | 0.00 | 0.01 | 0.01 | 30 | 1008.8 |
| 20260508184901 | 62 | 229 | 1.7 | 2.6 | 0.00 | 0.01 | 0.01 | 34 | 1008.7 |
| 20260508184359 | 61 | 233 | 3.5 | 12.2 | 0.00 | 0.01 | 0.01 | 31 | 1008.5 |
| 20260508183855 | 61 | 248 | 3.5 | 7.0 | 0.00 | 0.01 | 0.01 | 28 | 1008.8 |
| 20260508183352 | 61 | 271 | 7.0 | 8.7 | 0.00 | 0.01 | 0.01 | 32 | 1009.0 |
| 20260508182848 | 60 | 283 | 1.7 | 3.5 | 0.00 | 0.01 | 0.01 | 35 | 1009.0 |
| 20260508182344 | 61 | 264 | 7.0 | 14.8 | 0.00 | 0.01 | 0.01 | 31 | 1008.9 |
| 20260508181840 | 60 | 203 | 1.7 | 9.6 | 0.00 | 0.01 | 0.01 | 27 | 1009.0 |
| 20260508181337 | 60 | 250 | 3.5 | 8.7 | 0.00 | 0.01 | 0.01 | 30 | 1009.2 |
| 20260508180834 | 60 | 7 | 1.7 | 8.7 | 0.00 | 0.01 | 0.01 | 30 | 1009.1 |
| 20260508180331 | 61 | 261 | 3.5 | 8.7 | 0.00 | 0.01 | 0.01 | 28 | 1009.2 |
| 20260508175827 | 60 | 68 | 0.0 | 1.7 | 0.00 | 0.01 | 0.01 | 35 | 1009.5 |
| 20260508175324 | 60 | 53 | 1.7 | 5.2 | 0.00 | 0.01 | 0.01 | 28 | 1009.6 |
| 20260508174822 | 60 | 260 | 4.3 | 8.7 | 0.00 | 0.01 | 0.01 | 31 | 1009.5 |
| 20260508174319 | 60 | 245 | 1.7 | 2.6 | 0.00 | 0.01 | 0.01 | 30 | 1009.7 |
| 20260508173815 | 60 | 22 | 1.7 | 2.6 | 0.00 | 0.01 | 0.01 | 30 | 1009.7 |
| 20260508173312 | 59 | 33 | 0.0 | 3.5 | 0.00 | 0.01 | 0.01 | 33 | 1010.0 |
| 20260508172808 | 60 | 247 | 3.5 | 11.3 | 0.00 | 0.01 | 0.01 | 34 | 1010.0 |
| 20260508172307 | 58 | 173 | 2.6 | 7.0 | 0.00 | 0.01 | 0.01 | 36 | 1010.2 |
| 20260508171801 | 58 | 28 | 4.3 | 9.6 | 0.00 | 0.01 | 0.01 | 34 | 1010.2 |
| 20260508171258 | 59 | 280 | 12.2 | 13.9 | 0.00 | 0.01 | 0.01 | 30 | 1010.2 |
| 20260508170755 | 59 | 321 | 3.5 | 6.1 | 0.00 | 0.01 | 0.01 | 32 | 1010.3 |
| 20260508170253 | 59 | 353 | 9.6 | 11.3 | 0.00 | 0.01 | 0.01 | 31 | 1010.6 |
| 20260508165749 | 57 | 56 | 0.9 | 1.7 | 0.00 | 0.01 | 0.01 | 33 | 1010.3 |
| 20260508165247 | 59 | 68 | 1.7 | 8.7 | 0.00 | 0.01 | 0.01 | 28 | 1010.7 |
| 20260508164743 | 59 | 261 | 2.6 | 3.5 | 0.00 | 0.01 | 0.01 | 37 | 1010.7 |
| 20260508164239 | 59 | 268 | 4.3 | 6.1 | 0.00 | 0.01 | 0.01 | 31 | 1010.6 |
| 20260508163738 | 58 | 356 | 1.7 | 6.1 | 0.00 | 0.01 | 0.01 | 33 | 1010.9 |
| 20260508163235 | 58 | 262 | 1.7 | 6.1 | 0.00 | 0.01 | 0.01 | 36 | 1010.5 |
| 20260508162730 | 58 | 47 | 1.7 | 2.6 | 0.00 | 0.01 | 0.01 | 36 | 1010.7 |
| 20260508162228 | 59 | 281 | 4.3 | 7.8 | 0.00 | 0.01 | 0.01 | 32 | 1010.7 |
| 20260508161725 | 57 | 128 | 0.9 | 3.5 | 0.00 | 0.01 | 0.01 | 39 | 1010.9 |
| 20260508161222 | 57 | 20 | 0.9 | 3.5 | 0.00 | 0.01 | 0.01 | 35 | 1010.7 |
| 20260508160720 | 58 | 250 | 3.5 | 7.8 | 0.00 | 0.01 | 0.01 | 34 | 1010.8 |
| 20260508160218 | 58 | 320 | 1.7 | 6.1 | 0.00 | 0.01 | 0.01 | 37 | 1010.8 |
| 20260508155714 | 57 | 33 | 0.0 | 0.9 | 0.00 | 0.01 | 0.01 | 40 | 1010.8 |
| 20260508155211 | 57 | 23 | 0.9 | 5.2 | 0.00 | 0.01 | 0.01 | 35 | 1011.0 |
| 20260508154708 | 57 | 295 | 2.6 | 5.2 | 0.00 | 0.01 | 0.01 | 35 | 1011.0 |
| 20260508154205 | 57 | 340 | 1.7 | 6.1 | 0.00 | 0.01 | 0.01 | 42 | 1011.0 |
| 20260508153702 | 56 | 11 | 1.7 | 3.5 | 0.00 | 0.01 | 0.01 | 36 | 1011.0 |
| 20260508153159 | 56 | 244 | 3.5 | 5.2 | 0.00 | 0.01 | 0.01 | 39 | 1011.1 |
| 20260508152655 | 56 | 250 | 4.3 | 5.2 | 0.00 | 0.01 | 0.01 | 38 | 1011.2 |
| 20260508152151 | 55 | 249 | 3.5 | 6.1 | 0.00 | 0.01 | 0.01 | 41 | 1011.3 |
| 20260508151648 | 55 | 296 | 1.7 | 3.5 | 0.00 | 0.01 | 0.01 | 43 | 1011.3 |
| 20260508151145 | 55 | 215 | 1.7 | 5.2 | 0.00 | 0.01 | 0.01 | 38 | 1011.2 |
| 20260508150642 | 55 | 251 | 6.1 | 7.0 | 0.00 | 0.01 | 0.01 | 41 | 1011.3 |
| 20260508150138 | 54 | 330 | 0.9 | 1.7 | 0.00 | 0.01 | 0.01 | 42 | 1011.3 |
| 20260508145634 | 54 | 260 | 4.3 | 7.8 | 0.00 | 0.01 | 0.01 | 39 | 1011.4 |
| 20260508145131 | 55 | 240 | 3.5 | 5.2 | 0.00 | 0.01 | 0.01 | 46 | 1011.4 |
| 20260508144628 | 55 | 273 | 5.2 | 7.0 | 0.00 | 0.01 | 0.01 | 42 | 1011.6 |
| 20260508144126 | 54 | 262 | 2.6 | 2.6 | 0.00 | 0.01 | 0.01 | 47 | 1011.2 |
| 20260508143623 | 55 | 45 | 1.7 | 3.5 | 0.00 | 0.01 | 0.01 | 44 | 1011.5 |
| 20260508143120 | 53 | 273 | 3.5 | 3.5 | 0.00 | 0.01 | 0.01 | 45 | 1011.4 |
| 20260508142616 | 53 | 228 | 2.6 | 3.5 | 0.00 | 0.01 | 0.01 | 47 | 1011.5 |
| 20260508142113 | 52 | 289 | 4.3 | 6.1 | 0.00 | 0.01 | 0.01 | 50 | 1011.5 |
| 20260508141609 | 53 | 278 | 5.2 | 7.8 | 0.00 | 0.01 | 0.01 | 48 | 1011.6 |
| 20260508141107 | 53 | 235 | 5.2 | 7.8 | 0.00 | 0.01 | 0.01 | 52 | 1011.6 |
| 20260508140604 | 52 | 7 | 0.0 | 1.7 | 0.00 | 0.01 | 0.01 | 53 | 1011.6 |
| 20260508140101 | 52 | 247 | 2.6 | 3.5 | 0.00 | 0.01 | 0.01 | 56 | 1011.6 |
| 20260508135556 | 52 | 237 | 1.7 | 6.1 | 0.00 | 0.01 | 0.01 | 57 | 1011.6 |
| 20260508135053 | 52 | 282 | 1.7 | 5.2 | 0.00 | 0.01 | 0.01 | 51 | 1011.7 |
| 20260508134550 | 52 | 17 | 0.9 | 3.5 | 0.00 | 0.01 | 0.01 | 54 | 1011.7 |
| 20260508134047 | 51 | 246 | 2.6 | 2.6 | 0.00 | 0.01 | 0.01 | 58 | 1011.7 |
| 20260508133543 | 51 | 36 | 1.7 | 5.2 | 0.00 | 0.01 | 0.01 | 55 | 1011.8 |
| 20260508133041 | 51 | 224 | 2.6 | 3.5 | 0.00 | 0.01 | 0.01 | 59 | 1011.8 |
| 20260508132539 | 50 | 239 | 3.5 | 3.5 | 0.00 | 0.01 | 0.01 | 60 | 1011.9 |
| 20260508132035 | 50 | 190 | 2.6 | 3.5 | 0.00 | 0.01 | 0.01 | 61 | 1011.9 |
| 20260508131530 | 49 | 355 | 0.0 | 2.6 | 0.00 | 0.01 | 0.01 | 62 | 1012.0 |
| 20260508131027 | 49 | 233 | 1.7 | 5.2 | 0.00 | 0.01 | 0.01 | 59 | 1011.9 |
| 20260508130525 | 49 | 277 | 4.3 | 7.0 | 0.00 | 0.01 | 0.01 | 60 | 1011.8 |
| 20260508130020 | 49 | 274 | 3.5 | 3.5 | 0.00 | 0.01 | 0.01 | 63 | 1011.7 |
| 20260508125516 | 49 | 262 | 3.5 | 3.5 | 0.00 | 0.01 | 0.01 | 66 | 1011.8 |
| 20260508125015 | 48 | 4 | 0.9 | 2.6 | 0.00 | 0.01 | 0.01 | 69 | 1011.9 |
| 20260508124512 | 48 | 281 | 1.7 | 3.5 | 0.00 | 0.01 | 0.01 | 68 | 1011.6 |
| 20260508124009 | 47 | 286 | 2.6 | 2.6 | 0.00 | 0.01 | 0.01 | 73 | 1011.7 |
| 20260508123508 | 47 | 1 | 1.7 | 1.7 | 0.00 | 0.01 | 0.01 | 74 | 1011.6 |
| 20260508123004 | 47 | 355 | 0.9 | 2.6 | 0.00 | 0.01 | 0.01 | 76 | 1011.4 |
| 20260508122501 | 46 | 250 | 2.6 | 3.5 | 0.00 | 0.01 | 0.01 | 74 | 1011.4 |
| 20260508121958 | 46 | 316 | 1.7 | 2.6 | 0.00 | 0.01 | 0.01 | 77 | 1011.5 |
| 20260508121456 | 45 | 354 | 1.7 | 2.6 | 0.00 | 0.01 | 0.01 | 77 | 1011.3 |
| 20260508120953 | 45 | 356 | 0.9 | 2.6 | 0.00 | 0.01 | 0.01 | 78 | 1011.3 |
| 20260508120451 | 45 | 27 | 0.9 | 0.9 | 0.00 | 0.01 | 0.01 | 79 | 1011.1 |
| 20260508115949 | 45 | 354 | 0.9 | 1.7 | 0.00 | 0.01 | 0.01 | 79 | 1011.3 |
| 20260508115446 | 45 | 19 | 0.9 | 1.7 | 0.00 | 0.01 | 0.01 | 77 | 1011.1 |
| 20260508114943 | 46 | 32 | 0.0 | 0.0 | 0.00 | 0.01 | 0.01 | 76 | 1011.2 |
| 20260508114440 | 46 | 45 | 0.0 | 0.0 | 0.00 | 0.01 | 0.01 | 78 | 1011.2 |
| 20260508113936 | 45 | 45 | 0.0 | 0.0 | 0.00 | 0.01 | 0.01 | 81 | 1011.1 |
| 20260508113434 | 44 | 45 | 0.0 | 0.0 | 0.00 | 0.01 | 0.01 | 82 | 1011.3 |
| 20260508112931 | 45 | 45 | 0.0 | 0.0 | 0.00 | 0.01 | 0.01 | 82 | 1011.1 |
| 20260508112428 | 44 | 45 | 0.0 | 0.0 | 0.00 | 0.01 | 0.01 | 87 | 1011.1 |
| 20260508111924 | 42 | 45 | 0.0 | 0.0 | 0.00 | 0.01 | 0.01 | 92 | 1011.1 |
| 20260508111421 | 40 | 45 | 0.0 | 0.0 | 0.00 | 0.01 | 0.01 | 94 | 1011.0 |
| 20260508110919 | 39 | 45 | 0.0 | 0.0 | 0.00 | 0.01 | 0.01 | 94 | 1011.0 |
| 20260508110416 | 38 | 45 | 0.0 | 0.0 | 0.00 | 0.01 | 0.01 | 95 | 1011.0 |
| 20260508105916 | 37 | 11 | 0.0 | 0.0 | 0.00 | 0.01 | 0.01 | 95 | 1011.2 |
| 20260508105412 | 36 | 11 | 0.0 | 0.0 | 0.00 | 0.01 | 0.01 | 94 | 1011.1 |
| 20260508104909 | 36 | 11 | 0.0 | 0.0 | 0.00 | 0.01 | 0.01 | 94 | 1011.1 |
| 20260508104407 | 36 | 11 | 0.0 | 0.0 | 0.00 | 0.01 | 0.01 | 95 | 1011.0 |
| 20260508103904 | 35 | 11 | 0.0 | 0.0 | 0.00 | 0.01 | 0.01 | 95 | 1011.0 |
| 20260508103400 | 35 | 11 | 0.0 | 0.0 | 0.00 | 0.01 | 0.01 | 94 | 1011.1 |
| 20260508102858 | 35 | 11 | 0.0 | 0.0 | 0.00 | 0.01 | 0.01 | 94 | 1010.9 |
| 20260508102356 | 35 | 11 | 0.0 | 0.0 | 0.00 | 0.01 | 0.01 | 94 | 1010.8 |
| 20260508101853 | 35 | 11 | 0.0 | 0.0 | 0.00 | 0.01 | 0.01 | 94 | 1011.1 |
| 20260508101350 | 35 | 11 | 0.0 | 0.0 | 0.00 | 0.01 | 0.01 | 94 | 1011.1 |
| 20260508100848 | 35 | 11 | 0.0 | 0.0 | 0.00 | 0.01 | 0.01 | 93 | 1011.2 |
| 20260508100347 | 35 | 11 | 0.0 | 0.0 | 0.00 | 0.01 | 0.01 | 93 | 1011.3 |
| 20260508095841 | 35 | 11 | 0.0 | 0.0 | 0.00 | 0.01 | 0.01 | 93 | 1011.1 |
| 20260508095340 | 36 | 11 | 0.0 | 0.0 | 0.00 | 0.01 | 0.01 | 92 | 1011.1 |
| 20260508094836 | 36 | 11 | 0.0 | 0.0 | 0.00 | 0.01 | 0.01 | 92 | 1011.1 |
| 20260508094333 | 36 | 11 | 0.0 | 0.0 | 0.00 | 0.01 | 0.01 | 92 | 1011.1 |
| 20260508093830 | 36 | 10 | 0.0 | 0.0 | 0.00 | 0.01 | 0.01 | 91 | 1011.0 |
| 20260508093328 | 37 | 10 | 0.0 | 0.0 | 0.00 | 0.01 | 0.01 | 91 | 1011.2 |
| 20260508092825 | 37 | 10 | 0.0 | 0.0 | 0.00 | 0.01 | 0.01 | 91 | 1011.1 |
| 20260508092323 | 38 | 10 | 0.0 | 0.0 | 0.00 | 0.01 | 0.01 | 90 | 1011.1 |
| 20260508091821 | 38 | 10 | 0.0 | 0.0 | 0.00 | 0.01 | 0.01 | 90 | 1011.2 |
| 20260508091317 | 38 | 10 | 0.0 | 0.0 | 0.00 | 0.01 | 0.01 | 90 | 1011.1 |
| 20260508090815 | 38 | 10 | 0.0 | 0.0 | 0.00 | 0.01 | 0.01 | 90 | 1011.2 |
| 20260508090313 | 39 | 8 | 0.0 | 0.0 | 0.00 | 0.01 | 0.01 | 90 | 1011.2 |
| 20260508085808 | 39 | 12 | 0.0 | 0.0 | 0.00 | 0.01 | 0.01 | 89 | 1011.2 |
| 20260508085307 | 39 | 12 | 0.0 | 0.0 | 0.00 | 0.01 | 0.01 | 89 | 1011.0 |
| 20260508084801 | 39 | 12 | 0.0 | 0.0 | 0.00 | 0.01 | 0.01 | 88 | 1010.9 |
| 20260508084259 | 40 | 12 | 0.0 | 0.0 | 0.00 | 0.01 | 0.01 | 87 | 1010.9 |
| 20260508083756 | 40 | 12 | 0.0 | 0.0 | 0.00 | 0.01 | 0.01 | 87 | 1011.0 |
| 20260508083254 | 40 | 12 | 0.0 | 0.9 | 0.00 | 0.01 | 0.01 | 86 | 1011.0 |
| 20260508082753 | 40 | 11 | 0.9 | 0.9 | 0.00 | 0.01 | 0.01 | 86 | 1011.0 |
| 20260508082251 | 41 | 11 | 0.9 | 1.7 | 0.00 | 0.01 | 0.01 | 86 | 1011.0 |
| 20260508081749 | 41 | 17 | 0.9 | 0.9 | 0.00 | 0.01 | 0.01 | 87 | 1011.2 |
| 20260508081245 | 40 | 247 | 3.5 | 3.5 | 0.00 | 0.01 | 0.01 | 90 | 1011.0 |
| 20260508080742 | 40 | 5 | 0.9 | 0.9 | 0.00 | 0.01 | 0.01 | 90 | 1011.0 |
| 20260508080240 | 40 | 41 | 0.0 | 1.7 | 0.00 | 0.01 | 0.01 | 91 | 1011.2 |
| 20260508075736 | 40 | 37 | 3.5 | 3.5 | 0.05 | 0.01 | 0.01 | 92 | 1010.9 |
| 20260508075233 | 41 | 63 | 0.9 | 0.9 | 0.05 | 0.01 | 0.01 | 91 | 1011.2 |
| 20260508074731 | 40 | 323 | 1.7 | 3.5 | 0.00 | 0.00 | 0.00 | 92 | 1011.2 |
| 20260508074229 | 40 | 33 | 0.9 | 0.9 | 0.00 | 0.00 | 0.00 | 91 | 1011.1 |
| 20260508073725 | 40 | 33 | 0.0 | 0.0 | 0.00 | 0.00 | 0.00 | 91 | 1011.1 |
| 20260508073223 | 40 | 37 | 0.0 | 0.9 | 0.00 | 0.00 | 0.00 | 91 | 1011.0 |
| 20260508072719 | 40 | 26 | 0.9 | 0.9 | 0.00 | 0.00 | 0.00 | 91 | 1011.1 |
| 20260508072216 | 40 | 26 | 0.0 | 0.0 | 0.00 | 0.00 | 0.00 | 91 | 1010.9 |
| 20260508071713 | 40 | 26 | 0.0 | 0.0 | 0.00 | 0.00 | 0.00 | 91 | 1011.1 |
| 20260508071212 | 40 | 25 | 0.0 | 0.0 | 0.00 | 0.00 | 0.00 | 91 | 1011.1 |
| 20260508070709 | 40 | 25 | 0.9 | 0.9 | 0.00 | 0.00 | 0.00 | 91 | 1011.2 |
| 20260508070207 | 40 | 24 | 0.0 | 0.9 | 0.00 | 0.00 | 0.00 | 91 | 1011.2 |
| 20260508065704 | 40 | 72 | 0.9 | 0.9 | 0.00 | 0.00 | 0.00 | 91 | 1010.9 |
| 20260508065202 | 41 | 72 | 0.9 | 0.9 | 0.00 | 0.00 | 0.00 | 91 | 1011.0 |
| 20260508064659 | 41 | 37 | 0.9 | 0.9 | 0.00 | 0.00 | 0.00 | 91 | 1011.3 |
| 20260508064158 | 41 | 59 | 0.9 | 0.9 | 0.00 | 0.00 | 0.00 | 90 | 1011.5 |
| 20260508063655 | 41 | 74 | 0.9 | 1.7 | 0.00 | 0.00 | 0.00 | 90 | 1011.2 |
| 20260508063152 | 41 | 34 | 0.0 | 0.9 | 0.00 | 0.00 | 0.00 | 89 | 1011.8 |
| 20260508062649 | 41 | 34 | 0.9 | 0.9 | 0.00 | 0.00 | 0.00 | 89 | 1011.7 |
| 20260508062146 | 41 | 35 | 0.9 | 0.9 | 0.00 | 0.00 | 0.00 | 89 | 1011.8 |
| 20260508061643 | 41 | 36 | 0.9 | 0.9 | 0.00 | 0.00 | 0.00 | 88 | 1011.8 |
| 20260508061141 | 41 | 36 | 0.9 | 0.9 | 0.00 | 0.00 | 0.00 | 88 | 1011.5 |
| 20260508060638 | 41 | 28 | 0.0 | 0.0 | 0.00 | 0.00 | 0.00 | 88 | 1011.8 |
| 20260508060135 | 41 | 20 | 0.0 | 0.9 | 0.00 | 0.00 | 0.00 | 88 | 1011.8 |
| 20260508055630 | 41 | 43 | 0.0 | 0.9 | 0.00 | 0.00 | 0.00 | 87 | 1011.6 |
| 20260508055127 | 41 | 38 | 0.9 | 1.7 | 0.00 | 0.00 | 0.00 | 86 | 1011.6 |
| 20260508054624 | 41 | 37 | 0.9 | 0.9 | 0.00 | 0.00 | 0.00 | 85 | 1011.8 |
| 20260508054122 | 41 | 38 | 0.0 | 0.0 | 0.00 | 0.00 | 0.00 | 84 | 1011.8 |
| 20260508053618 | 41 | 38 | 0.0 | 0.0 | 0.00 | 0.00 | 0.00 | 84 | 1012.0 |
| 20260508053116 | 41 | 38 | 0.0 | 0.0 | 0.00 | 0.00 | 0.00 | 83 | 1011.9 |
| 20260508052613 | 41 | 38 | 0.0 | 0.0 | 0.00 | 0.00 | 0.00 | 82 | 1011.7 |
| 20260508052110 | 41 | 38 | 0.0 | 0.0 | 0.00 | 0.00 | 0.00 | 83 | 1011.9 |
| 20260508051606 | 41 | 38 | 0.0 | 0.0 | 0.00 | 0.00 | 0.00 | 83 | 1012.0 |
| 20260508051102 | 41 | 38 | 0.0 | 0.0 | 0.00 | 0.00 | 0.00 | 83 | 1011.9 |
| 20260508050558 | 41 | 38 | 0.0 | 0.0 | 0.00 | 0.00 | 0.00 | 84 | 1011.9 |
| 20260508050056 | 41 | 37 | 0.0 | 0.0 | 0.00 | 0.00 | 0.00 | 83 | 1011.9 |
| 20260508045551 | 41 | 37 | 0.0 | 0.0 | 0.00 | 0.00 | 0.00 | 83 | 1011.8 |
| 20260508045049 | 41 | 37 | 0.0 | 0.0 | 0.00 | 0.00 | 0.00 | 83 | 1011.8 |
| 20260508044547 | 41 | 37 | 0.0 | 0.0 | 0.00 | 0.00 | 0.00 | 83 | 1012.0 |
| 20260508044042 | 41 | 37 | 0.0 | 0.0 | 0.00 | 0.00 | 0.00 | 84 | 1011.8 |
| 20260508043539 | 41 | 44 | 0.0 | 0.0 | 0.00 | 0.00 | 0.00 | 83 | 1012.0 |
| 20260508043037 | 41 | 35 | 0.0 | 0.0 | 0.00 | 0.00 | 0.00 | 80 | 1011.8 |
| 20260508042533 | 41 | 35 | 0.0 | 0.0 | 0.00 | 0.00 | 0.00 | 78 | 1011.6 |
| 20260508042031 | 41 | 35 | 0.0 | 0.0 | 0.00 | 0.00 | 0.00 | 77 | 1011.7 |
| 20260508041527 | 41 | 35 | 0.0 | 0.0 | 0.00 | 0.00 | 0.00 | 77 | 1011.7 |
| 20260508041023 | 41 | 35 | 0.0 | 0.9 | 0.00 | 0.00 | 0.00 | 78 | 1011.6 |
| 20260508040521 | 42 | 35 | 0.0 | 0.0 | 0.00 | 0.00 | 0.00 | 76 | 1011.7 |
| 20260508040018 | 42 | 35 | 0.0 | 0.0 | 0.00 | 0.00 | 0.00 | 76 | 1011.6 |
| 20260508035515 | 43 | 35 | 0.0 | 0.0 | 0.00 | 0.00 | 0.00 | 74 | 1011.7 |
| 20260508035012 | 43 | 23 | 0.0 | 0.9 | 0.00 | 0.00 | 0.00 | 72 | 1011.8 |
| 20260508034509 | 43 | 7 | 0.9 | 1.7 | 0.00 | 0.00 | 0.00 | 72 | 1011.8 |
| 20260508034006 | 43 | 43 | 0.0 | 0.9 | 0.00 | 0.00 | 0.00 | 71 | 1011.7 |
| 20260508033503 | 43 | 32 | 0.0 | 0.9 | 0.00 | 0.00 | 0.00 | 71 | 1011.6 |
| 20260508033001 | 42 | 22 | 0.9 | 2.6 | 0.00 | 0.00 | 0.00 | 73 | 1011.8 |
| 20260508032458 | 42 | 48 | 0.0 | 1.7 | 0.00 | 0.00 | 0.00 | 75 | 1011.9 |
| 20260508031955 | 42 | 53 | 0.9 | 0.9 | 0.00 | 0.00 | 0.00 | 75 | 1011.8 |
| 20260508031453 | 42 | 25 | 0.0 | 0.9 | 0.00 | 0.00 | 0.00 | 74 | 1011.6 |
| 20260508030947 | 42 | 40 | 0.0 | 0.0 | 0.00 | 0.00 | 0.00 | 74 | 1011.8 |
| 20260508030445 | 42 | 40 | 0.9 | 0.9 | 0.00 | 0.00 | 0.00 | 73 | 1011.6 |
| 20260508025942 | 42 | 40 | 0.0 | 0.9 | 0.00 | 0.00 | 0.00 | 72 | 1011.7 |
| 20260508025439 | 42 | 36 | 0.9 | 1.7 | 0.00 | 0.00 | 0.00 | 72 | 1011.7 |
| 20260508024936 | 42 | 45 | 0.0 | 0.9 | 0.00 | 0.00 | 0.00 | 72 | 1011.6 |